Time;durP1;ratioP1;P1;durP2;ratioP2;P2;SDS_P1;SDS_P2;PMS_P1;PMS_P2;Temp;Humidity;BMP_temperature;BMP_pressure;BME280_temperature;BME280_humidity;BME280_pressure;Samples;Min_cycle;Max_cycle;Signal;HPM_P1;HPM_P2
2022/11/23 00:00:35;;;;;;;5.63;3.92;;;;;;;5.63;83.34;96840.59;5003731;28;20045;-83
2022/11/23 00:03:01;;;;;;;5.82;3.38;;;;;;;5.52;82.99;96834.22;5006856;28;20042;-84
2022/11/23 00:05:29;;;;;;;6.45;3.58;;;;;;;5.54;83.98;96842.63;5001234;28;20096;-84
2022/11/23 00:07:55;;;;;;;9.20;4.05;;;;;;;5.51;83.92;96835.19;5010693;28;20100;-83
2022/11/23 00:10:21;;;;;;;10.30;4.40;;;;;;;5.52;83.96;96842.03;5010663;28;20065;-83
2022/11/23 00:12:46;;;;;;;10.50;4.25;;;;;;;5.52;84.00;96843.81;5009034;28;20129;-84
2022/11/23 00:15:14;;;;;;;6.68;4.05;;;;;;;5.53;83.85;96842.81;5007811;28;20029;-83
2022/11/23 00:17:40;;;;;;;7.45;3.83;;;;;;;5.51;83.48;96840.38;5010001;28;20038;-84
2022/11/23 00:20:09;;;;;;;4.80;3.40;;;;;;;5.57;83.58;96841.41;5006687;28;20045;-85
2022/11/23 00:22:34;;;;;;;8.32;3.60;;;;;;;5.53;83.02;96838.41;5006945;28;20030;-83
2022/11/23 00:25:00;;;;;;;5.25;3.40;;;;;;;5.59;83.35;96845.44;5008534;28;20049;-83
2022/11/23 00:27:26;;;;;;;7.63;3.92;;;;;;;5.58;83.34;96846.44;5008105;28;20044;-83
2022/11/23 00:29:51;;;;;;;7.22;3.20;;;;;;;5.62;83.37;96855.41;5005020;28;20048;-83
2022/11/23 00:32:17;;;;;;;6.40;3.63;;;;;;;5.59;83.29;96840.22;5006204;28;20034;-83
2022/11/23 00:34:42;;;;;;;7.70;3.10;;;;;;;5.54;82.94;96842.63;5004857;28;20041;-83
2022/11/23 00:37:08;;;;;;;5.45;3.30;;;;;;;5.52;83.02;96841.22;5001304;28;20087;-83
2022/11/23 00:39:34;;;;;;;8.40;3.95;;;;;;;5.53;83.26;96838.41;5002053;28;20049;-83
2022/11/23 00:41:59;;;;;;;4.95;3.10;;;;;;;5.53;83.29;96840.22;5003827;28;20030;-83
2022/11/23 00:44:25;;;;;;;7.15;3.47;;;;;;;5.53;83.25;96840.22;5001994;28;20551;-83
2022/11/23 00:46:56;;;;;;;5.22;3.40;;;;;;;5.50;83.09;96838.78;5016824;28;20038;-83
2022/11/23 00:49:22;;;;;;;7.80;3.72;;;;;;;5.49;83.17;96837.19;5007254;28;20041;-83
2022/11/23 00:51:47;;;;;;;4.47;3.08;;;;;;;5.41;83.45;96827.00;5004739;28;20109;-83
2022/11/23 00:54:13;;;;;;;7.05;3.58;;;;;;;5.44;83.43;96836.97;5009378;28;20065;-84
2022/11/23 00:56:39;;;;;;;8.73;3.65;;;;;;;5.40;83.55;96840.16;5006369;28;20087;-83
2022/11/23 00:59:04;;;;;;;5.97;3.33;;;;;;;5.35;83.46;96828.59;5004021;28;20038;-83
2022/11/23 01:01:35;;;;;;;5.85;3.45;;;;;;;5.28;83.82;96826.97;5009261;28;20029;-83
2022/11/23 01:04:03;;;;;;;;;;;;;;;5.27;84.06;96840.94;5008630;28;20231;-83
2022/11/23 01:06:36;;;;;;;6.50;3.72;;;;;;;5.26;83.86;96837.56;5009787;28;20258;-84
2022/11/23 01:09:07;;;;;;;7.30;3.88;;;;;;;5.25;83.93;96842.94;5010959;28;20034;-83
2022/11/23 01:11:33;;;;;;;7.80;3.25;;;;;;;5.23;84.05;96839.75;5009987;28;20037;-83
2022/11/23 01:14:00;;;;;;;8.80;3.85;;;;;;;5.20;84.37;96840.13;5011924;28;20928;-83
2022/11/23 01:16:29;;;;;;;5.32;3.30;;;;;;;5.15;84.15;96827.72;5013362;28;20030;-83
2022/11/23 01:19:02;;;;;;;5.85;3.50;;;;;;;5.17;84.47;96837.94;5005647;28;20409;-83
2022/11/23 01:21:30;;;;;;;8.45;3.45;;;;;;;5.10;83.97;96836.13;5012668;28;20029;-83
2022/11/23 01:23:56;;;;;;;4.82;3.20;;;;;;;5.12;84.34;96848.13;5007915;28;20222;-84
2022/11/23 01:26:22;;;;;;;7.63;3.33;;;;;;;5.12;84.59;96842.91;5011389;28;20500;-83
2022/11/23 01:28:48;;;;;;;6.28;3.15;;;;;;;5.07;84.27;96846.91;5009615;28;20044;-83
2022/11/23 01:31:16;;;;;;;8.32;3.35;;;;;;;5.07;84.66;96854.69;5010026;28;20054;-83
2022/11/23 01:33:42;;;;;;;5.97;3.75;;;;;;;5.07;84.74;96848.69;5010898;28;20030;-83
2022/11/23 01:36:18;;;;;;;5.30;3.25;;;;;;;5.01;84.85;96850.28;5010262;28;20105;-84
2022/11/23 01:38:46;;;;;;;4.78;3.17;;;;;;;5.02;84.95;96851.88;5008779;28;20038;-84
2022/11/23 01:41:18;;;;;;;6.35;3.42;;;;;;;4.96;84.73;96860.44;5011872;28;20041;-83
2022/11/23 01:43:45;;;;;;;5.22;3.22;;;;;;;4.97;85.58;96856.84;5019242;28;20037;-82
2022/11/23 01:46:11;;;;;;;6.32;3.60;;;;;;;4.91;85.38;96873.22;5002969;28;20066;-83
2022/11/23 01:49:03;;;;;;;6.43;3.53;;;;;;;4.91;85.42;96872.41;5012013;28;20097;-83
2022/11/23 01:51:41;;;;;;;7.03;3.50;;;;;;;4.87;85.42;96871.22;5011346;28;20464;-83
2022/11/23 01:54:20;;;;;;;5.32;2.88;;;;;;;4.77;85.46;96861.97;5010081;28;20030;-84
2022/11/23 01:56:56;;;;;;;7.10;3.40;;;;;;;4.80;85.46;96871.19;5010720;28;20069;-83
2022/11/23 01:59:23;;;;;;;5.60;3.42;;;;;;;4.81;85.72;96862.41;5003920;28;20502;-83
2022/11/23 02:01:49;;;;;;;5.35;3.00;;;;;;;4.81;85.57;96875.38;5006872;28;20547;-83
2022/11/23 02:04:22;;;;;;;5.97;4.38;;;;;;;4.81;85.52;96875.38;5003413;28;20110;-83
2022/11/23 02:06:49;;;;;;;9.68;3.30;;;;;;;4.81;85.59;96875.38;5006477;28;20080;-84
2022/11/23 02:09:16;;;;;;;8.93;3.47;;;;;;;4.77;85.81;96881.94;5002865;28;20393;-83
2022/11/23 02:11:42;;;;;;;10.13;3.25;;;;;;;4.75;85.73;96879.56;5005619;28;20032;-83
2022/11/23 02:14:08;;;;;;;10.73;3.75;;;;;;;4.65;85.71;96863.50;5010190;28;20041;-83
2022/11/23 02:16:37;;;;;;;6.32;3.13;;;;;;;4.77;86.00;96887.16;5006571;28;20044;-83
2022/11/23 02:19:11;;;;;;;9.00;3.55;;;;;;;4.69;86.06;96871.72;5011979;28;20045;-83
2022/11/23 02:21:39;;;;;;;6.78;3.03;;;;;;;4.72;85.77;96882.50;5001901;28;20061;-84
2022/11/23 02:24:19;;;;;;;9.93;3.13;;;;;;;4.75;85.98;96878.75;5009580;28;20042;-84
2022/11/23 02:26:45;;;;;;;6.53;3.58;;;;;;;4.73;85.96;96881.53;5005848;28;20046;-84
2022/11/23 02:29:20;;;;;;;7.65;3.88;;;;;;;4.74;86.15;96879.75;5011281;28;20490;-83
2022/11/23 02:31:46;;;;;;;5.45;3.47;;;;;;;4.71;86.17;96888.72;5004905;28;20814;-83
2022/11/23 02:34:11;;;;;;;6.38;3.20;;;;;;;4.69;86.17;96889.91;5010547;28;20041;-83
2022/11/23 02:36:46;;;;;;;4.82;3.45;;;;;;;4.70;86.19;96896.69;5008871;28;20092;-84
2022/11/23 02:39:29;;;;;;;6.63;3.50;;;;;;;4.70;86.61;96901.91;5005314;28;20034;-83
2022/11/23 02:41:56;;;;;;;9.02;3.47;;;;;;;4.75;86.70;96886.53;5006176;28;20085;-82
2022/11/23 02:44:59;;;;;;;6.80;3.20;;;;;;;4.79;86.36;96890.34;5004498;28;20031;-83
2022/11/23 02:47:25;;;;;;;6.22;3.30;;;;;;;4.82;86.46;96887.38;5003939;28;20030;-83
2022/11/23 02:49:50;;;;;;;8.07;3.38;;;;;;;4.89;85.93;96890.00;5010353;28;20057;-83
2022/11/23 02:52:18;;;;;;;6.13;3.22;;;;;;;4.91;85.92;96886.19;5008620;28;20069;-83
2022/11/23 02:54:43;;;;;;;6.53;3.05;;;;;;;4.92;85.83;96881.81;5008455;28;20065;-83
2022/11/23 02:57:09;;;;;;;6.60;3.47;;;;;;;4.99;85.70;96885.25;5006904;28;20076;-83
2022/11/23 02:59:35;;;;;;;7.13;3.20;;;;;;;4.99;85.83;96891.25;5007216;28;20030;-83
2022/11/23 03:02:03;;;;;;;5.90;3.28;;;;;;;4.98;85.42;96884.47;5005415;28;20470;-83
2022/11/23 03:04:29;;;;;;;7.45;3.10;;;;;;;4.95;85.62;96881.44;5009990;28;20038;-83
2022/11/23 03:06:55;;;;;;;7.18;3.63;;;;;;;4.99;85.42;96891.25;5007061;28;20030;-83
2022/11/23 03:09:20;;;;;;;6.65;3.50;;;;;;;4.93;85.14;96892.03;5008102;28;20920;-83
2022/11/23 03:11:46;;;;;;;7.40;3.22;;;;;;;4.97;85.40;96903.63;5010281;28;20034;-83
2022/11/23 03:14:11;;;;;;;5.43;3.53;;;;;;;4.96;85.38;96899.41;5004767;28;20108;-84
2022/11/23 03:16:37;;;;;;;5.68;3.60;;;;;;;4.98;85.30;96905.25;5003853;28;20048;-83
2022/11/23 03:19:03;;;;;;;6.88;3.58;;;;;;;4.91;85.07;96896.59;5003406;28;20105;-83
2022/11/23 03:21:28;;;;;;;6.28;3.15;;;;;;;4.94;85.29;96898.81;5009727;28;20034;-83
2022/11/23 03:23:55;;;;;;;9.60;3.78;;;;;;;4.86;85.28;96901.59;5010548;28;20048;-83
2022/11/23 03:26:20;;;;;;;6.30;3.40;;;;;;;4.93;85.96;96897.22;5007662;28;20049;-83
2022/11/23 03:28:46;;;;;;;8.50;3.67;;;;;;;4.95;85.19;96897.03;5006921;28;20046;-83
2022/11/23 03:31:11;;;;;;;5.13;3.30;;;;;;;4.98;84.98;96900.03;5006452;28;20049;-83
2022/11/23 03:33:37;;;;;;;5.32;3.42;;;;;;;5.02;85.22;96903.84;5004314;28;20084;-83
2022/11/23 03:36:03;;;;;;;5.85;3.70;;;;;;;5.06;85.28;96909.47;5011746;28;20034;-83
2022/11/23 03:38:29;;;;;;;6.88;3.60;;;;;;;5.07;85.18;96909.28;5008647;28;20037;-83
2022/11/23 03:40:54;;;;;;;5.15;3.20;;;;;;;5.10;84.72;96905.50;5007413;28;20049;-83
2022/11/23 03:43:20;;;;;;;5.13;3.25;;;;;;;5.11;84.92;96899.31;5007933;28;20083;-83
2022/11/23 03:45:46;;;;;;;6.25;3.30;;;;;;;5.07;84.35;96901.47;5004816;28;20048;-83
2022/11/23 03:48:11;;;;;;;7.20;3.00;;;;;;;5.05;84.22;96889.69;5005708;28;20694;-82
2022/11/23 03:50:37;;;;;;;6.28;3.20;;;;;;;5.05;84.93;96887.88;5009319;28;20084;-83
2022/11/23 03:53:02;;;;;;;6.03;3.45;;;;;;;5.15;84.63;96904.91;5007424;28;20030;-83
2022/11/23 03:55:28;;;;;;;6.05;3.00;;;;;;;5.12;84.45;96890.50;5008639;28;20121;-83
2022/11/23 03:57:58;;;;;;;7.75;3.30;;;;;;;5.14;84.56;96892.91;5008978;28;20029;-83
2022/11/23 04:00:25;;;;;;;5.22;3.22;;;;;;;5.10;84.36;96898.50;5000233;28;20066;-83
2022/11/23 04:02:50;;;;;;;4.63;2.95;;;;;;;5.21;84.63;96904.13;5004874;28;20134;-83
2022/11/23 04:05:16;;;;;;;6.82;2.88;;;;;;;5.19;83.95;96900.91;5000696;28;20030;-83
2022/11/23 04:07:42;;;;;;;6.45;3.60;;;;;;;5.17;83.98;96898.53;5001603;28;20372;-83
2022/11/23 04:10:07;;;;;;;5.35;2.95;;;;;;;5.13;84.17;96886.09;5007833;28;20040;-83
2022/11/23 04:12:36;;;;;;;5.97;3.60;;;;;;;5.21;84.44;96893.72;5004625;28;20517;-83
2022/11/23 04:15:01;;;;;;;6.70;3.45;;;;;;;5.18;84.22;96889.72;5003117;28;20033;-83
2022/11/23 04:17:27;;;;;;;6.72;2.97;;;;;;;5.25;84.68;96884.53;5004829;28;20041;-83
2022/11/23 04:19:52;;;;;;;6.43;3.40;;;;;;;5.19;83.54;96877.53;5007932;28;20033;-83
2022/11/23 04:22:18;;;;;;;8.48;3.13;;;;;;;5.25;83.93;96879.34;5000072;28;20040;-83
2022/11/23 04:24:43;;;;;;;7.30;3.33;;;;;;;5.23;83.33;96881.34;5004466;28;20042;-84
2022/11/23 04:27:09;;;;;;;6.28;3.30;;;;;;;5.21;83.64;96867.72;5004294;28;20060;-83
2022/11/23 04:29:34;;;;;;;5.22;3.13;;;;;;;5.22;83.40;96879.75;5006934;28;20091;-83
2022/11/23 04:32:00;;;;;;;5.95;3.15;;;;;;;5.21;83.16;96872.91;4999884;28;20121;-83
2022/11/23 04:34:25;;;;;;;4.13;3.28;;;;;;;5.25;84.09;96871.53;5006682;28;20787;-83
2022/11/23 04:36:51;;;;;;;6.15;3.00;;;;;;;5.24;83.66;96862.94;5004002;28;20037;-83
2022/11/23 04:39:16;;;;;;;3.92;3.05;;;;;;;5.21;83.22;96865.94;5008288;28;20038;-83
2022/11/23 04:41:42;;;;;;;5.88;3.10;;;;;;;5.25;83.39;96863.75;5002208;28;20034;-83
2022/11/23 04:44:10;;;;;;;6.03;3.60;;;;;;;5.25;83.32;96868.94;5000257;28;20107;-83
2022/11/23 04:46:36;;;;;;;5.90;3.20;;;;;;;5.18;83.02;96874.13;5009050;28;20041;-83
2022/11/23 04:49:01;;;;;;;5.43;3.05;;;;;;;5.14;83.54;96877.31;5007148;28;20026;-83
2022/11/23 04:51:27;;;;;;;6.10;2.95;;;;;;;5.10;84.01;96872.50;5007398;28;20041;-83
2022/11/23 04:53:52;;;;;;;4.40;3.13;;;;;;;5.05;84.62;96877.50;5006437;28;20057;-83
2022/11/23 04:56:18;;;;;;;5.47;3.20;;;;;;;5.02;84.26;96877.84;5006345;28;20034;-83
2022/11/23 04:58:43;;;;;;;6.25;3.05;;;;;;;5.05;84.21;96874.88;5004016;28;20113;-83
2022/11/23 05:01:08;;;;;;;6.13;3.55;;;;;;;5.11;84.57;96873.31;5003886;28;20068;-83
2022/11/23 05:03:34;;;;;;;5.65;3.10;;;;;;;5.13;84.34;96875.72;5003756;28;20529;-83
2022/11/23 05:06:02;;;;;;;5.35;2.88;;;;;;;5.19;84.58;96869.72;5003107;28;20034;-83
2022/11/23 05:08:28;;;;;;;6.78;2.92;;;;;;;5.22;83.83;96864.94;5008428;28;20036;-83
2022/11/23 05:10:54;;;;;;;5.43;3.00;;;;;;;5.15;82.80;96868.50;5006351;28;20045;-83
2022/11/23 05:13:20;;;;;;;5.65;3.20;;;;;;;5.14;83.47;96861.72;5003164;28;20730;-83
2022/11/23 05:15:45;;;;;;;6.03;3.38;;;;;;;5.07;83.40;96867.69;5006388;28;20184;-83
2022/11/23 05:18:11;;;;;;;4.82;3.10;;;;;;;5.17;84.32;96867.34;5007931;28;20029;-84
2022/11/23 05:20:37;;;;;;;5.28;2.95;;;;;;;5.14;83.62;96870.31;5002772;28;20045;-83
2022/11/23 05:23:03;;;;;;;7.88;3.40;;;;;;;5.09;84.03;96865.69;5004663;28;20449;-82
2022/11/23 05:25:29;;;;;;;5.10;3.08;;;;;;;5.07;84.04;96852.09;5005081;28;20037;-82
2022/11/23 05:27:55;;;;;;;7.00;3.20;;;;;;;5.13;83.94;96866.09;5000791;28;20030;-82
2022/11/23 05:30:20;;;;;;;4.20;2.90;;;;;;;5.10;83.60;96862.13;5003708;28;20087;-83
2022/11/23 05:32:46;;;;;;;8.70;3.80;;;;;;;5.10;84.19;96864.72;5001533;28;20109;-83
2022/11/23 05:35:11;;;;;;;6.15;3.20;;;;;;;5.08;84.25;96858.09;5006811;28;20042;-83
2022/11/23 05:37:38;;;;;;;4.80;2.92;;;;;;;5.13;84.46;96868.72;5003888;28;20050;-83
2022/11/23 05:40:05;;;;;;;5.25;2.80;;;;;;;5.16;84.41;96862.31;5005029;28;20441;-82
2022/11/23 05:42:31;;;;;;;5.60;2.83;;;;;;;5.06;83.78;96862.69;5006323;28;20068;-82
2022/11/23 05:44:57;;;;;;;5.07;2.90;;;;;;;5.14;84.56;96866.91;5003213;28;20034;-83
2022/11/23 05:47:23;;;;;;;5.40;3.35;;;;;;;5.17;84.24;96862.13;5007662;28;20098;-82
2022/11/23 05:49:49;;;;;;;4.47;2.55;;;;;;;5.17;84.37;96869.94;5008236;28;20038;-83
2022/11/23 05:52:16;;;;;;;4.63;3.10;;;;;;;5.21;84.39;96862.53;5010659;28;20034;-83
2022/11/23 05:54:42;;;;;;;10.95;3.70;;;;;;;5.17;84.33;96869.13;5008551;28;20038;-83
2022/11/23 05:57:08;;;;;;;8.05;3.47;;;;;;;5.17;84.33;96871.72;5009701;28;20056;-83
2022/11/23 05:59:33;;;;;;;5.22;3.10;;;;;;;5.15;84.26;96873.69;5007460;28;20040;-82
2022/11/23 06:01:59;;;;;;;4.85;3.15;;;;;;;5.01;84.52;96871.06;5002012;28;20109;-83
2022/11/23 06:04:24;;;;;;;5.40;3.13;;;;;;;5.00;84.64;96872.06;5006346;28;20045;-82
2022/11/23 06:06:53;;;;;;;4.25;2.95;;;;;;;5.06;85.11;96876.47;5008346;28;20513;-82
2022/11/23 06:09:19;;;;;;;10.43;3.30;;;;;;;5.06;84.43;96876.47;5006293;28;20105;-83
2022/11/23 06:11:47;;;;;;;6.53;3.38;;;;;;;5.12;85.35;96874.09;5010846;28;20057;-82
2022/11/23 06:14:13;;;;;;;5.40;3.38;;;;;;;5.16;85.10;96880.50;5010235;28;20041;-83
2022/11/23 06:16:38;;;;;;;6.60;2.95;;;;;;;5.21;84.49;96878.91;5006422;28;20044;-83
2022/11/23 06:19:04;;;;;;;3.80;2.90;;;;;;;5.17;84.16;96879.53;5008929;28;20037;-83
2022/11/23 06:21:30;;;;;;;5.03;3.15;;;;;;;5.19;84.13;96874.94;5003726;28;20038;-83
2022/11/23 06:23:56;;;;;;;7.00;3.60;;;;;;;5.20;84.10;96882.53;5003644;28;20048;-83
2022/11/23 06:26:21;;;;;;;5.85;3.13;;;;;;;5.17;84.25;96876.94;5007759;28;20042;-83
2022/11/23 06:28:47;;;;;;;5.97;3.53;;;;;;;5.10;84.66;96869.91;5005128;28;20038;-83
2022/11/23 06:31:12;;;;;;;6.03;3.60;;;;;;;5.13;84.71;96875.72;5007999;28;20057;-82
2022/11/23 06:33:38;;;;;;;6.53;3.25;;;;;;;5.08;84.71;96879.69;5007973;28;20535;-83
2022/11/23 06:36:04;;;;;;;8.75;3.80;;;;;;;5.08;85.44;96884.06;5001720;28;20030;-83
2022/11/23 06:38:29;;;;;;;7.30;3.45;;;;;;;5.16;85.15;96889.13;5007767;28;20034;-83
2022/11/23 06:40:59;;;;;;;4.60;3.08;;;;;;;5.14;85.19;96892.91;5006720;28;20064;-83
2022/11/23 06:43:26;;;;;;;7.85;3.53;;;;;;;5.15;84.93;96889.31;5006001;28;20083;-83
2022/11/23 06:45:53;;;;;;;8.20;3.83;;;;;;;5.14;84.72;96887.69;5004727;28;20605;-82
2022/11/23 06:48:20;;;;;;;6.05;3.55;;;;;;;5.15;85.03;96890.09;5005980;28;20030;-83
2022/11/23 06:50:46;;;;;;;5.60;3.70;;;;;;;5.10;85.05;96888.09;5008511;28;20049;-83
2022/11/23 06:53:12;;;;;;;7.20;4.10;;;;;;;5.10;85.18;96890.69;5001247;28;20042;-83
2022/11/23 06:55:38;;;;;;;8.10;3.95;;;;;;;5.08;85.22;96894.47;5006439;28;20046;-83
2022/11/23 06:58:04;;;;;;;6.00;3.83;;;;;;;5.11;85.10;96907.09;5005009;28;20466;-82
2022/11/23 07:00:30;;;;;;;8.50;4.13;;;;;;;5.04;85.35;96903.66;5005962;28;20137;-83
2022/11/23 07:02:56;;;;;;;7.70;3.80;;;;;;;4.99;85.37;96903.44;5004297;28;20038;-82
2022/11/23 07:05:23;;;;;;;9.40;4.25;;;;;;;5.04;85.85;96908.88;5009452;28;20069;-83
2022/11/23 07:07:49;;;;;;;8.38;4.45;;;;;;;5.05;85.00;96902.66;5000959;28;20477;-83
2022/11/23 07:10:16;;;;;;;6.72;4.13;;;;;;;4.96;85.20;96901.22;5002020;28;20030;-83
2022/11/23 07:12:41;;;;;;;6.40;3.60;;;;;;;4.94;85.37;96904.03;5003978;28;20037;-83
2022/11/23 07:15:07;;;;;;;8.35;4.35;;;;;;;5.01;85.27;96911.84;5008440;28;20092;-83
2022/11/23 07:17:39;;;;;;;8.75;3.95;;;;;;;4.99;85.66;96906.84;5006895;28;20034;-83
2022/11/23 07:20:10;;;;;;;9.20;3.65;;;;;;;5.09;85.32;96919.47;5004081;28;20374;-83
2022/11/23 07:22:36;;;;;;;5.00;3.72;;;;;;;5.10;85.21;96919.28;5008587;28;20423;-82
2022/11/23 07:25:04;;;;;;;7.80;3.83;;;;;;;5.17;85.04;96923.72;5008752;28;20049;-83
2022/11/23 07:27:29;;;;;;;8.15;3.75;;;;;;;5.27;85.12;96929.34;5005551;28;20049;-83
2022/11/23 07:29:55;;;;;;;7.18;4.00;;;;;;;5.25;84.71;96939.13;5000523;28;20041;-83
2022/11/23 07:32:20;;;;;;;6.40;3.92;;;;;;;5.22;85.08;96926.53;4998249;28;20065;-83
2022/11/23 07:34:46;;;;;;;7.72;3.97;;;;;;;5.21;85.41;96932.72;4999800;28;20033;-83
2022/11/23 07:37:11;;;;;;;5.60;3.90;;;;;;;5.23;85.37;96925.53;5004405;28;20034;-83
2022/11/23 07:39:37;;;;;;;5.75;3.88;;;;;;;5.27;85.74;96939.72;5008286;28;20034;-83
2022/11/23 07:42:02;;;;;;;5.93;3.80;;;;;;;5.22;85.26;96936.94;5006903;28;20470;-83
2022/11/23 07:44:28;;;;;;;5.85;3.60;;;;;;;5.32;85.74;96943.34;5004193;28;20041;-83
2022/11/23 07:46:54;;;;;;;7.35;4.00;;;;;;;5.36;85.16;96943.78;5005995;28;20073;-82
2022/11/23 07:49:20;;;;;;;6.22;3.35;;;;;;;5.42;85.12;96942.22;4996366;28;20397;-83
2022/11/23 07:51:46;;;;;;;8.05;3.63;;;;;;;5.45;84.72;96947.81;5005528;28;20038;-83
2022/11/23 07:54:11;;;;;;;5.35;3.08;;;;;;;5.44;84.62;96956.59;5007991;28;20681;-83
2022/11/23 07:56:37;;;;;;;7.55;3.63;;;;;;;5.51;84.69;96952.22;5005564;28;20041;-83
2022/11/23 07:59:02;;;;;;;6.72;3.60;;;;;;;5.54;84.42;96953.66;5004588;28;20029;-83
2022/11/23 08:01:28;;;;;;;8.75;3.70;;;;;;;5.50;84.04;96953.22;5005431;28;20040;-83
2022/11/23 08:03:53;;;;;;;6.47;3.22;;;;;;;5.42;84.50;96947.41;5000400;28;20037;-83
2022/11/23 08:06:19;;;;;;;5.60;3.80;;;;;;;5.45;84.48;96958.19;5003983;28;20556;-83
2022/11/23 08:08:44;;;;;;;5.22;3.25;;;;;;;5.45;84.44;96962.59;5007852;28;20057;-83
2022/11/23 08:11:13;;;;;;;8.30;3.55;;;;;;;5.47;84.55;96955.44;5002552;28;20062;-83
2022/11/23 08:13:40;;;;;;;6.05;3.40;;;;;;;5.42;84.58;96937.81;5003305;28;20042;-83
2022/11/23 08:16:06;;;;;;;6.78;3.30;;;;;;;5.44;84.04;96951.41;5005058;28;20038;-82
2022/11/23 08:18:31;;;;;;;7.72;3.42;;;;;;;5.51;84.57;96957.41;5007417;28;20466;-83
2022/11/23 08:21:01;;;;;;;6.72;3.00;;;;;;;5.55;84.59;96950.03;5000374;28;20087;-82
2022/11/23 08:23:27;;;;;;;5.65;3.50;;;;;;;5.55;84.70;96955.25;5001847;28;20083;-83
2022/11/23 08:25:53;;;;;;;7.20;3.60;;;;;;;5.60;85.46;96958.06;5006502;28;20056;-82
2022/11/23 08:28:19;;;;;;;7.18;3.25;;;;;;;5.60;84.69;96961.47;5007107;28;20025;-83
2022/11/23 08:30:46;;;;;;;9.05;3.50;;;;;;;5.63;84.85;96958.47;5004887;28;20644;-83
2022/11/23 08:33:14;;;;;;;6.85;3.80;;;;;;;5.64;84.67;96952.28;5005909;28;20073;-83
2022/11/23 08:35:41;;;;;;;7.28;3.33;;;;;;;5.74;84.37;96958.91;5004718;28;20041;-83
2022/11/23 08:38:09;;;;;;;7.78;3.38;;;;;;;5.80;85.10;96945.09;4999757;28;20029;-82
2022/11/23 08:40:36;;;;;;;6.82;3.42;;;;;;;5.86;84.31;96949.50;5002677;28;20042;-83
2022/11/23 08:43:02;;;;;;;5.50;3.10;;;;;;;5.89;83.54;96947.34;5009303;28;20548;-82
2022/11/23 08:45:28;;;;;;;7.57;3.22;;;;;;;5.95;83.77;96950.97;5005397;28;20034;-83
2022/11/23 08:47:59;;;;;;;8.70;4.28;;;;;;;5.95;83.22;96948.38;5007792;28;20040;-83
2022/11/23 08:50:25;;;;;;;4.35;3.22;;;;;;;6.00;83.34;96951.19;4999913;28;20816;-82
2022/11/23 08:52:57;;;;;;;6.30;3.60;;;;;;;6.08;83.36;96948.38;5006455;28;20105;-82
2022/11/23 08:55:24;;;;;;;4.38;3.10;;;;;;;6.14;83.19;96955.41;5006805;28;20084;-82
2022/11/23 08:57:49;;;;;;;5.35;3.15;;;;;;;6.20;82.70;96947.81;5002234;28;20041;-83
2022/11/23 09:00:15;;;;;;;20.00;8.55;;;;;;;6.27;82.72;96956.41;5003230;28;20103;-82
2022/11/23 09:02:41;;;;;;;16.83;10.73;;;;;;;6.32;82.53;96948.81;5004330;28;20661;-82
2022/11/23 09:05:07;;;;;;;8.75;6.53;;;;;;;6.40;82.16;96959.00;4996716;28;20137;-82
2022/11/23 09:07:32;;;;;;;9.50;4.50;;;;;;;6.37;82.15;96954.22;5003858;28;20030;-82
2022/11/23 09:09:58;;;;;;;10.20;5.22;;;;;;;6.51;82.68;96953.19;5000783;28;20045;-82
2022/11/23 09:12:23;;;;;;;9.57;3.85;;;;;;;6.55;81.35;96946.59;5001438;28;20061;-83
2022/11/23 09:14:49;;;;;;;7.35;5.95;;;;;;;6.66;81.51;96943.38;5007459;28;20038;-83
2022/11/23 09:17:14;;;;;;;8.07;6.13;;;;;;;6.76;81.70;96952.56;5004826;28;20037;-83
2022/11/23 09:19:40;;;;;;;5.28;2.90;;;;;;;6.80;79.71;96964.19;5006379;28;20042;-83
2022/11/23 09:22:05;;;;;;;5.60;3.85;;;;;;;6.76;80.30;96955.19;5002065;28;20033;-82
2022/11/23 09:24:31;;;;;;;9.40;4.15;;;;;;;6.78;80.10;96945.34;5007941;28;20509;-82
2022/11/23 09:26:57;;;;;;;5.97;3.75;;;;;;;6.96;79.76;96953.34;5006319;28;20073;-83
2022/11/23 09:29:24;;;;;;;6.43;3.88;;;;;;;7.12;80.11;96955.50;5009324;28;20077;-82
2022/11/23 09:31:49;;;;;;;5.40;3.72;;;;;;;7.16;78.89;96951.47;5005413;28;20125;-83
2022/11/23 09:34:15;;;;;;;4.20;3.40;;;;;;;7.24;78.92;96951.25;5006204;28;20120;-82
2022/11/23 09:36:41;;;;;;;5.15;3.30;;;;;;;7.25;78.53;96945.00;5007023;28;20089;-82
2022/11/23 09:39:07;;;;;;;5.70;3.13;;;;;;;7.27;78.43;96946.63;5008550;28;20475;-82
2022/11/23 09:41:55;;;;;;;7.50;3.50;;;;;;;7.28;78.21;96953.44;5005963;28;20053;-82
2022/11/23 09:44:51;;;;;;;7.60;3.70;;;;;;;7.38;77.96;96948.59;5016431;28;20029;-82
2022/11/23 09:48:07;;;;;;;8.70;4.20;;;;;;;7.55;78.15;96943.69;5008818;28;20037;-83
2022/11/23 09:51:00;;;;;;;5.97;3.65;;;;;;;7.71;77.34;96954.44;5008715;28;20037;-82
2022/11/23 09:53:38;;;;;;;4.78;3.15;;;;;;;7.70;75.70;96947.63;5007551;28;20061;-82
2022/11/23 09:56:08;;;;;;;6.60;3.45;;;;;;;7.79;76.37;96935.13;5004766;28;20662;-82
2022/11/23 09:58:39;;;;;;;7.22;3.35;;;;;;;7.92;75.65;96940.28;5008188;28;20046;-82
2022/11/23 10:01:18;;;;;;;9.23;3.80;;;;;;;7.97;75.32;96944.84;5004984;28;20065;-82
2022/11/23 10:03:45;;;;;;;5.95;3.10;;;;;;;8.02;75.06;96939.81;5011538;28;20041;-82
2022/11/23 10:06:36;;;;;;;5.72;3.00;;;;;;;8.15;74.71;96938.91;5006753;28;20109;-82
2022/11/23 10:09:39;;;;;;;4.10;3.15;;;;;;;8.11;73.65;96942.97;5009633;28;20500;-82
2022/11/23 10:12:34;;;;;;;5.43;3.08;;;;;;;8.18;74.04;96941.13;5003963;28;20046;-82
2022/11/23 10:15:23;;;;;;;6.68;3.28;;;;;;;8.33;73.85;96933.75;5002587;28;20030;-82
2022/11/23 10:18:14;;;;;;;4.13;2.80;;;;;;;8.41;74.29;96922.28;5009998;28;20034;-82
2022/11/23 10:21:18;;;;;;;5.82;2.92;;;;;;;8.47;72.31;96937.09;5002808;28;20069;-82
2022/11/23 10:23:55;;;;;;;5.43;3.30;;;;;;;8.65;73.48;96931.91;5006439;28;20086;-82
2022/11/23 10:26:33;;;;;;;5.88;3.40;;;;;;;8.75;72.36;96934.03;5021108;28;20992;-83
2022/11/23 10:29:31;;;;;;;4.25;3.10;;;;;;;8.91;70.65;96927.44;5003479;28;20044;-83
2022/11/23 10:31:57;;;;;;;6.63;3.38;;;;;;;8.94;71.28;96927.03;5007838;28;20609;-83
2022/11/23 10:34:47;;;;;;;5.25;2.95;;;;;;;8.97;71.45;96926.56;5010459;28;20038;-83
2022/11/23 10:37:17;;;;;;;4.75;2.65;;;;;;;8.97;71.11;96913.50;5006681;28;20042;-82
2022/11/23 10:39:43;;;;;;;5.00;3.15;;;;;;;9.06;70.95;96920.84;5010659;28;20065;-82
2022/11/23 10:42:28;;;;;;;6.53;3.88;;;;;;;9.04;69.89;96911.59;5003560;28;20065;-82
2022/11/23 10:44:56;;;;;;;7.10;3.33;;;;;;;9.09;70.12;96915.16;4999983;28;20038;-82
2022/11/23 10:47:59;;;;;;;4.70;3.20;;;;;;;9.05;69.32;96907.97;5003978;28;20041;-83
2022/11/23 10:50:39;;;;;;;4.80;2.63;;;;;;;9.12;69.49;96903.47;5003311;28;20078;-83
2022/11/23 10:53:04;;;;;;;5.82;3.42;;;;;;;9.18;69.96;96907.84;5006733;28;20038;-82
2022/11/23 10:55:49;;;;;;;8.07;3.33;;;;;;;9.10;68.52;96906.28;5006588;28;20497;-82
2022/11/23 10:58:43;;;;;;;7.35;3.10;;;;;;;9.17;70.40;96915.88;4992235;28;20468;-82
2022/11/23 11:01:23;;;;;;;5.90;2.97;;;;;;;9.20;69.30;96911.03;5001368;28;20042;-82
2022/11/23 11:03:51;;;;;;;7.20;3.17;;;;;;;9.26;69.37;96904.91;5007020;28;20104;-82
2022/11/23 11:06:31;;;;;;;9.07;3.47;;;;;;;9.33;69.11;96915.28;5002122;28;20033;-83
2022/11/23 11:09:03;;;;;;;6.40;3.10;;;;;;;9.38;69.27;96913.59;5006028;28;20030;-83
2022/11/23 11:11:46;;;;;;;6.43;3.50;;;;;;;9.41;68.67;96906.31;5004500;28;20045;-82
2022/11/23 11:14:16;;;;;;;5.10;3.22;;;;;;;9.54;68.05;96899.13;5009355;28;20057;-82
2022/11/23 11:16:59;;;;;;;10.40;3.00;;;;;;;9.59;67.77;96895.81;5000392;28;20034;-82
2022/11/23 11:19:31;;;;;;;6.60;3.05;;;;;;;9.84;68.55;96906.16;5005921;28;20033;-83
2022/11/23 11:22:00;;;;;;;6.63;3.70;;;;;;;9.89;68.09;96904.44;5001349;28;20037;-82
2022/11/23 11:24:34;;;;;;;5.95;3.42;;;;;;;9.94;66.95;96895.94;5008136;28;20065;-82
2022/11/23 11:27:16;;;;;;;6.63;3.05;;;;;;;10.05;65.48;96896.97;5006978;28;20117;-82
2022/11/23 11:29:44;;;;;;;6.40;3.08;;;;;;;10.17;67.42;96897.78;5009204;28;20038;-83
2022/11/23 11:32:53;;;;;;;5.93;2.88;;;;;;;10.31;66.63;96893.97;5005246;28;20034;-82
2022/11/23 11:35:31;;;;;;;7.03;2.75;;;;;;;10.34;64.93;96890.09;5006723;28;20470;-82
2022/11/23 11:38:15;;;;;;;6.18;2.78;;;;;;;10.43;64.91;96881.69;5008907;28;20331;-82
2022/11/23 11:40:48;;;;;;;5.30;2.85;;;;;;;10.47;63.97;96883.84;5006951;28;20021;-82
2022/11/23 11:43:22;;;;;;;6.20;2.95;;;;;;;10.53;64.55;96883.72;5000809;28;20040;-82
2022/11/23 11:45:54;;;;;;;5.80;3.40;;;;;;;10.39;64.64;96872.69;5002424;28;20109;-82
2022/11/23 11:48:29;;;;;;;7.70;3.30;;;;;;;10.41;64.54;96869.81;5004074;28;20440;-83
2022/11/23 11:51:15;;;;;;;6.07;3.35;;;;;;;10.52;64.54;96881.34;5000820;28;20042;-83